createdAt,value
2018-04-16T00:00:18.566Z,84.25
2018-04-16T00:02:46.149Z,85.19
2018-04-16T00:05:13.741Z,85.37
2018-04-16T00:07:41.322Z,85.40
2018-04-16T00:10:08.907Z,85.43
2018-04-16T00:12:36.489Z,86.18
2018-04-16T00:15:04.073Z,85.96
2018-04-16T00:17:31.656Z,86.33
2018-04-16T00:19:59.236Z,87.07
2018-04-16T00:22:26.820Z,87.57
2018-04-16T00:24:54.438Z,87.85
2018-04-16T00:27:22.829Z,88.03
2018-04-16T00:29:50.416Z,88.23
2018-04-16T00:32:24.642Z,87.35
2018-04-16T00:34:57.833Z,87.45
2018-04-16T00:37:32.057Z,86.41
2018-04-16T00:43:04.343Z,85.30
2018-04-16T00:45:37.534Z,84.85
2018-04-16T00:48:10.779Z,84.64
2018-04-16T00:50:44.069Z,84.88
2018-04-16T00:53:17.243Z,83.45
2018-04-16T00:55:50.424Z,84.38
2018-04-16T00:58:23.650Z,84.94
2018-04-16T01:00:56.837Z,83.05
2018-04-16T01:03:30.266Z,84.74
2018-04-16T01:06:03.397Z,83.98
2018-04-16T01:08:36.589Z,84.25
2018-04-16T01:11:09.833Z,84.52
2018-04-16T01:13:42.981Z,84.15
2018-04-16T01:16:16.293Z,83.95
2018-04-16T01:18:49.409Z,83.99
2018-04-16T01:21:22.717Z,84.48
2018-04-16T01:23:56.123Z,85.06
2018-04-16T01:26:29.461Z,84.50
2018-04-16T01:29:02.810Z,83.55
2018-04-16T01:31:36.025Z,83.57
2018-04-16T01:34:09.321Z,83.10
2018-04-16T01:36:42.432Z,83.13
2018-04-16T01:39:15.685Z,83.54
2018-04-16T01:41:48.945Z,84.37
2018-04-16T01:44:22.257Z,83.70
2018-04-16T01:46:55.654Z,83.43
2018-04-16T01:49:28.917Z,83.90
2018-04-16T01:52:02.090Z,84.82
2018-04-16T01:54:35.377Z,84.09
2018-04-16T01:57:08.574Z,84.50
2018-04-16T01:59:41.765Z,85.87
2018-04-16T02:02:14.957Z,87.15
2018-04-16T02:04:48.154Z,87.25
2018-04-16T02:07:21.341Z,86.56
2018-04-16T02:09:54.501Z,85.67
2018-04-16T02:12:27.749Z,86.01
2018-04-16T02:15:00.934Z,86.79
2018-04-16T02:17:33.932Z,86.76
2018-04-16T02:20:07.101Z,87.43
2018-04-16T02:22:40.335Z,87.25
2018-04-16T02:25:13.485Z,85.44
2018-04-16T02:30:50.830Z,85.20
2018-04-16T02:33:24.017Z,86.30
2018-04-16T02:35:58.062Z,86.85
2018-04-16T02:38:31.176Z,87.25
2018-04-16T02:41:04.445Z,85.36
2018-04-16T02:43:37.620Z,84.48
2018-04-16T02:46:10.805Z,86.10
2018-04-16T02:48:43.925Z,86.32
2018-04-16T02:51:17.166Z,84.05
2018-04-16T02:53:50.457Z,84.82
2018-04-16T02:59:24.277Z,84.13
2018-04-16T03:01:57.597Z,85.10
2018-04-16T03:04:30.882Z,84.72
2018-04-16T03:07:04.169Z,85.29
2018-04-16T03:09:37.565Z,83.95
2018-04-16T03:12:10.734Z,83.75
2018-04-16T03:14:44.005Z,84.57
2018-04-16T03:17:17.204Z,85.23
2018-04-16T03:19:50.541Z,85.39
2018-04-16T03:22:23.758Z,85.94
2018-04-16T03:24:56.925Z,86.98
2018-04-16T03:27:30.019Z,88.00
2018-04-16T03:30:03.214Z,88.02
2018-04-16T03:32:36.532Z,88.19
2018-04-16T03:35:09.841Z,88.19
2018-04-16T03:37:43.161Z,88.05
2018-04-16T03:40:16.245Z,88.23
2018-04-16T03:42:49.401Z,87.41
2018-04-16T03:45:22.570Z,87.97
2018-04-16T03:47:55.754Z,89.00
2018-04-16T03:50:29.002Z,89.63
2018-04-16T03:53:02.117Z,88.71
2018-04-16T03:55:35.307Z,89.04
2018-04-16T03:58:02.901Z,90.13
2018-04-16T04:00:30.502Z,89.58
2018-04-16T04:02:58.114Z,89.06
2018-04-16T04:05:25.725Z,89.12
2018-04-16T04:07:53.306Z,89.88
2018-04-16T04:10:20.918Z,89.39
2018-04-16T04:12:49.393Z,88.66
2018-04-16T04:15:17.756Z,88.92
2018-04-16T04:17:46.190Z,87.02
2018-04-16T04:20:13.826Z,85.75
2018-04-16T04:22:53.198Z,87.50
2018-04-16T04:25:32.513Z,88.06
2018-04-16T04:28:11.781Z,86.17
2018-04-16T04:30:39.393Z,87.74
2018-04-16T04:33:06.972Z,87.74
2018-04-16T04:35:34.581Z,88.19
2018-04-16T04:38:02.993Z,89.07
2018-04-16T04:40:31.475Z,88.26
2018-04-16T04:42:59.867Z,88.36
2018-04-16T04:45:28.274Z,88.03
2018-04-16T04:47:56.794Z,88.34
2018-04-16T04:50:25.237Z,89.07
2018-04-16T04:52:53.757Z,89.16
2018-04-16T04:55:21.336Z,88.51
2018-04-16T04:57:48.920Z,89.50
2018-04-16T05:00:16.532Z,89.82
2018-04-16T05:02:44.217Z,90.04
2018-04-16T05:05:12.647Z,91.23
2018-04-16T05:07:41.777Z,91.19
2018-04-16T05:10:10.222Z,91.94
2018-04-16T05:12:38.610Z,92.94
2018-04-16T05:15:06.194Z,92.57
2018-04-16T05:17:33.825Z,91.52
2018-04-16T05:20:01.417Z,93.30
2018-04-16T05:22:29.050Z,93.10
2018-04-16T05:24:56.684Z,94.08
2018-04-16T05:27:24.265Z,93.26
2018-04-16T05:29:51.891Z,91.89
2018-04-16T05:32:19.570Z,91.18
2018-04-16T05:34:47.150Z,90.62
2018-04-16T05:37:15.517Z,90.51
2018-04-16T05:39:44.022Z,90.56
2018-04-16T05:42:11.607Z,90.09
2018-04-16T05:44:39.264Z,90.88
2018-04-16T05:47:06.846Z,91.38
2018-04-16T05:49:34.424Z,91.80
2018-04-16T05:52:02.001Z,91.88
2018-04-16T05:54:29.629Z,92.31
2018-04-16T05:56:57.265Z,92.77
2018-04-16T05:59:24.858Z,92.76
2018-04-16T06:01:52.443Z,91.84
2018-04-16T06:04:20.880Z,91.24
2018-04-16T06:06:48.469Z,91.45
2018-04-16T06:09:16.100Z,91.69
2018-04-16T06:11:43.766Z,91.46
2018-04-16T06:14:12.132Z,91.53
2018-04-16T06:16:39.712Z,91.28
2018-04-16T06:19:07.301Z,91.69
2018-04-16T06:21:34.914Z,92.26
2018-04-16T06:24:02.500Z,92.06
2018-04-16T06:26:30.085Z,91.51
2018-04-16T06:28:57.833Z,91.86
2018-04-16T06:31:25.413Z,92.40
2018-04-16T06:33:53.021Z,91.86
2018-04-16T06:36:21.415Z,92.15
2018-04-16T06:38:52.392Z,91.82
2018-04-16T06:41:19.970Z,91.87
2018-04-16T06:43:47.585Z,91.98
2018-04-16T06:46:16.061Z,91.64
2018-04-16T06:48:43.685Z,91.93
2018-04-16T06:51:12.061Z,92.52
2018-04-16T06:53:39.642Z,92.60
2018-04-16T06:56:08.153Z,92.82
2018-04-16T06:58:35.781Z,92.73
2018-04-16T07:01:04.219Z,93.40
2018-04-16T07:03:31.848Z,92.61
2018-04-16T07:05:59.471Z,92.18
2018-04-16T07:08:27.876Z,91.91
2018-04-16T07:10:55.561Z,92.00
2018-04-16T07:13:23.922Z,91.68
2018-04-16T07:15:52.314Z,91.71
2018-04-16T07:18:19.904Z,92.04
2018-04-16T07:20:49.924Z,91.55
2018-04-16T07:23:18.785Z,92.45
2018-04-16T07:25:47.218Z,92.80
2018-04-16T07:28:15.808Z,92.46
2018-04-16T07:30:44.336Z,91.95
2018-04-16T07:33:11.929Z,92.88
2018-04-16T07:35:40.458Z,93.22
2018-04-16T07:38:08.099Z,93.44
2018-04-16T07:40:36.664Z,93.51
2018-04-16T07:43:04.289Z,93.59
2018-04-16T07:45:31.873Z,93.42
2018-04-16T07:47:59.518Z,93.38
2018-04-16T07:50:29.234Z,93.44
2018-04-16T07:52:56.817Z,93.88
2018-04-16T07:55:24.401Z,93.62
2018-04-16T07:57:51.980Z,93.41
2018-04-16T08:00:19.560Z,93.68
2018-04-16T08:02:47.182Z,93.89
2018-04-16T08:05:15.574Z,93.84
2018-04-16T08:07:43.227Z,93.84
2018-04-16T08:10:11.611Z,93.93
2018-04-16T08:12:40.017Z,94.40
2018-04-16T08:15:07.702Z,94.32
2018-04-16T08:17:35.326Z,94.70
2018-04-16T08:20:02.936Z,94.94
2018-04-16T08:22:30.521Z,94.25
2018-04-16T08:24:58.110Z,94.94
2018-04-16T08:27:26.629Z,94.60
2018-04-16T08:29:54.258Z,94.42
2018-04-16T08:32:21.890Z,94.42
2018-04-16T08:34:49.673Z,94.28
2018-04-16T08:37:17.298Z,94.65
2018-04-16T08:39:45.730Z,94.56
2018-04-16T08:42:14.244Z,94.29
2018-04-16T08:44:41.909Z,94.09
2018-04-16T08:47:09.498Z,93.75
2018-04-16T08:49:37.136Z,93.97
2018-04-16T08:52:04.730Z,93.99
2018-04-16T08:54:32.323Z,92.94
2018-04-16T08:57:00.820Z,93.47
2018-04-16T08:59:28.457Z,92.79
2018-04-16T09:01:56.045Z,92.60
2018-04-16T09:04:23.674Z,93.13
2018-04-16T09:06:51.269Z,92.36
2018-04-16T09:09:19.752Z,91.92
2018-04-16T09:11:47.507Z,92.37
2018-04-16T09:14:15.098Z,92.15
2018-04-16T09:16:42.683Z,92.02
2018-04-16T09:19:10.297Z,92.05
2018-04-16T09:21:37.881Z,91.66
2018-04-16T09:24:05.472Z,91.67
2018-04-16T09:26:33.054Z,91.90
2018-04-16T09:29:01.570Z,91.16
2018-04-16T09:31:29.151Z,90.39
2018-04-16T09:33:56.740Z,91.25
2018-04-16T09:36:24.325Z,91.20
2018-04-16T09:38:51.934Z,90.41
2018-04-16T09:41:19.529Z,90.19
2018-04-16T09:43:48.074Z,90.17
2018-04-16T09:46:16.550Z,91.10
2018-04-16T09:48:44.153Z,90.64
2018-04-16T09:51:11.744Z,90.63
2018-04-16T09:53:39.498Z,89.10
2018-04-16T09:56:07.453Z,88.99
2018-04-16T09:58:35.096Z,88.59
2018-04-16T10:01:03.180Z,89.63
2018-04-16T10:03:32.372Z,89.43
2018-04-16T10:06:00.827Z,89.69
2018-04-16T10:08:29.661Z,89.28
2018-04-16T10:10:57.647Z,88.73
2018-04-16T10:13:25.233Z,90.16
2018-04-16T10:15:52.817Z,87.94
2018-04-16T10:18:20.431Z,87.92
2018-04-16T10:20:48.013Z,88.72
2018-04-16T10:23:16.226Z,89.46
2018-04-16T10:25:43.881Z,88.62
2018-04-16T10:28:11.465Z,89.37
2018-04-16T10:30:39.137Z,89.77
2018-04-16T10:33:06.745Z,88.10
2018-04-16T10:35:34.332Z,89.25
2018-04-16T10:38:01.915Z,87.35
2018-04-16T10:40:29.548Z,87.85
2018-04-16T10:42:57.114Z,89.96
2018-04-16T10:45:26.513Z,88.51
2018-04-16T10:47:54.093Z,86.57
2018-04-16T10:50:22.538Z,85.24
2018-04-16T10:52:50.898Z,86.43
2018-04-16T10:55:19.480Z,87.36
2018-04-16T10:57:47.185Z,86.14
2018-04-16T11:00:14.845Z,86.60
2018-04-16T11:02:42.508Z,86.17
2018-04-16T11:05:10.100Z,86.23
2018-04-16T11:07:38.126Z,84.01
2018-04-16T11:10:06.626Z,82.28
2018-04-16T11:12:34.253Z,82.62
2018-04-16T11:15:01.855Z,83.09
2018-04-16T11:17:29.487Z,84.68
2018-04-16T11:19:57.173Z,84.11
2018-04-16T11:22:24.837Z,83.98
2018-04-16T11:24:52.453Z,83.80
2018-04-16T11:27:20.116Z,83.30
2018-04-16T11:29:47.701Z,84.30
2018-04-16T11:32:16.392Z,82.63
2018-04-16T11:34:44.013Z,83.72
2018-04-16T11:37:12.409Z,86.07
2018-04-16T11:39:40.954Z,82.18
2018-04-16T11:42:08.597Z,82.29
2018-04-16T11:44:36.178Z,84.38
2018-04-16T11:47:03.822Z,81.31
2018-04-16T11:49:31.489Z,82.03
2018-04-16T11:51:59.154Z,82.71
2018-04-16T11:54:26.781Z,81.79
2018-04-16T11:56:54.370Z,82.32
2018-04-16T11:59:21.986Z,81.60
2018-04-16T12:01:49.577Z,82.41
2018-04-16T12:04:17.229Z,81.97
2018-04-16T12:06:44.781Z,81.16
2018-04-16T12:09:12.408Z,82.84
2018-04-16T12:11:39.991Z,84.84
2018-04-16T12:14:07.608Z,84.21
2018-04-16T12:16:35.353Z,80.39
2018-04-16T12:19:02.920Z,81.32
2018-04-16T12:21:30.501Z,79.62
2018-04-16T12:23:58.157Z,79.91
2018-04-16T12:26:25.741Z,79.67
2018-04-16T12:28:54.033Z,78.83
2018-04-16T12:31:22.326Z,81.74
2018-04-16T12:33:49.936Z,81.17
2018-04-16T12:36:17.594Z,79.32
2018-04-16T12:38:45.189Z,80.96
2018-04-16T12:41:12.805Z,80.74
2018-04-16T12:43:40.390Z,80.58
2018-04-16T12:46:07.974Z,80.09
2018-04-16T12:48:35.555Z,80.38
2018-04-16T12:51:03.146Z,77.60
2018-04-16T12:53:32.944Z,78.37
2018-04-16T12:56:00.526Z,78.05
2018-04-16T12:58:28.109Z,76.58
2018-04-16T13:00:55.689Z,74.67
2018-04-16T13:03:23.270Z,75.08
2018-04-16T13:05:50.866Z,75.57
2018-04-16T13:08:18.469Z,75.82
2018-04-16T13:10:46.045Z,76.28
2018-04-16T13:13:13.626Z,77.44
2018-04-16T13:15:42.025Z,76.36
2018-04-16T13:18:09.609Z,74.40
2018-04-16T13:20:38.137Z,74.66
2018-04-16T13:23:05.749Z,74.88
2018-04-16T13:25:33.422Z,74.94
2018-04-16T13:28:01.037Z,75.68
2018-04-16T13:30:28.626Z,75.96
2018-04-16T13:32:56.209Z,75.55
2018-04-16T13:35:23.861Z,73.74
2018-04-16T13:37:51.446Z,72.17
2018-04-16T13:40:19.089Z,72.82
2018-04-16T13:42:46.681Z,71.66
2018-04-16T13:45:14.262Z,72.91
2018-04-16T13:47:41.842Z,71.89
2018-04-16T13:50:10.275Z,73.89
2018-04-16T13:52:37.916Z,73.79
2018-04-16T13:55:05.529Z,73.47
2018-04-16T13:57:33.816Z,72.65
2018-04-16T14:00:02.278Z,72.65
2018-04-16T14:02:29.863Z,73.96
2018-04-16T14:04:57.443Z,73.64
2018-04-16T14:07:25.025Z,73.09
2018-04-16T14:09:52.606Z,72.76
2018-04-16T14:12:20.978Z,72.18
2018-04-16T14:14:48.559Z,71.66
2018-04-16T14:17:16.142Z,72.47
2018-04-16T14:19:43.729Z,73.16
2018-04-16T14:22:11.406Z,74.74
2018-04-16T14:24:39.001Z,75.81
2018-04-16T14:27:06.628Z,76.06
2018-04-16T14:29:34.227Z,75.48
2018-04-16T14:32:01.830Z,73.75
2018-04-16T14:34:29.415Z,76.53
2018-04-16T14:36:57.798Z,77.21
2018-04-16T14:39:25.385Z,77.83
2018-04-16T14:41:53.017Z,77.78
2018-04-16T14:44:20.577Z,78.39
2018-04-16T14:46:48.159Z,79.44
2018-04-16T14:49:15.837Z,78.20
2018-04-16T14:51:43.454Z,79.17
2018-04-16T14:54:11.133Z,80.01
2018-04-16T14:56:38.726Z,79.75
2018-04-16T14:59:06.352Z,80.02
2018-04-16T15:01:34.042Z,79.75
2018-04-16T15:04:01.627Z,80.24
2018-04-16T15:06:29.212Z,81.13
2018-04-16T15:08:56.793Z,80.90
2018-04-16T15:11:24.381Z,81.41
2018-04-16T15:13:52.022Z,80.35
2018-04-16T15:16:19.614Z,81.45
2018-04-16T15:18:47.199Z,81.56
2018-04-16T15:21:14.809Z,82.28
2018-04-16T15:23:42.400Z,84.43
2018-04-16T15:26:09.987Z,83.16
2018-04-16T15:28:37.588Z,82.93
2018-04-16T15:31:05.232Z,83.28
2018-04-16T15:33:32.847Z,83.55
2018-04-16T15:36:00.429Z,84.42
2018-04-16T15:38:28.013Z,83.84
2018-04-16T15:40:55.596Z,83.27
2018-04-16T15:43:23.183Z,84.02
2018-04-16T15:45:50.769Z,83.90
2018-04-16T15:48:18.354Z,84.05
2018-04-16T15:50:46.032Z,84.42
2018-04-16T15:53:13.659Z,85.91
2018-04-16T15:55:41.246Z,85.78
2018-04-16T15:58:08.841Z,85.79
2018-04-16T16:00:37.337Z,85.37
2018-04-16T16:03:04.923Z,86.60
2018-04-16T16:05:32.613Z,85.31
2018-04-16T16:08:00.202Z,85.97
2018-04-16T16:10:27.809Z,86.25
2018-04-16T16:12:55.389Z,86.61
2018-04-16T16:15:22.995Z,85.44
2018-04-16T16:17:50.594Z,86.28
2018-04-16T16:20:18.177Z,86.59
2018-04-16T16:22:45.771Z,86.88
2018-04-16T16:25:13.360Z,88.14
2018-04-16T16:27:40.941Z,88.35
2018-04-16T16:30:08.635Z,88.04
2018-04-16T16:32:36.290Z,88.02
2018-04-16T16:35:03.886Z,88.44
2018-04-16T16:37:31.472Z,88.49
2018-04-16T16:39:59.058Z,89.89
2018-04-16T16:42:26.742Z,89.49
2018-04-16T16:44:54.330Z,89.48
2018-04-16T16:47:21.917Z,89.45
2018-04-16T16:49:49.530Z,91.44
2018-04-16T16:52:17.899Z,89.03
2018-04-16T16:54:45.494Z,89.08
2018-04-16T16:57:13.137Z,89.40
2018-04-16T16:59:40.789Z,90.38
2018-04-16T17:02:08.381Z,90.01
2018-04-16T17:04:35.970Z,90.56
2018-04-16T17:07:03.553Z,90.63
2018-04-16T17:09:31.240Z,91.29
2018-04-16T17:11:58.905Z,91.46
2018-04-16T17:14:26.482Z,91.17
2018-04-16T17:16:54.073Z,91.33
2018-04-16T17:19:22.479Z,92.53
2018-04-16T17:21:50.887Z,92.78
2018-04-16T17:24:18.470Z,92.68
2018-04-16T17:26:46.060Z,93.93
2018-04-16T17:29:13.646Z,93.86
2018-04-16T17:31:41.439Z,94.06
2018-04-16T17:34:09.097Z,94.59
2018-04-16T17:36:36.695Z,94.71
2018-04-16T17:39:04.293Z,94.01
2018-04-16T17:41:31.884Z,94.18
2018-04-16T17:43:59.465Z,94.27
2018-04-16T17:46:27.083Z,95.32
2018-04-16T17:48:55.540Z,95.23
2018-04-16T17:51:23.186Z,95.30
2018-04-16T17:53:50.801Z,95.55
2018-04-16T17:56:18.398Z,95.74
2018-04-16T17:58:45.977Z,95.77
2018-04-16T18:01:13.562Z,95.36
2018-04-16T18:03:41.197Z,94.92
2018-04-16T18:06:08.790Z,94.55
2018-04-16T18:08:36.373Z,94.60
2018-04-16T18:11:03.952Z,94.85
2018-04-16T18:13:31.541Z,94.93
2018-04-16T18:15:59.137Z,95.43
2018-04-16T18:18:26.738Z,96.10
2018-04-16T18:20:55.154Z,96.14
2018-04-16T18:23:23.238Z,95.78
2018-04-16T18:25:50.874Z,95.41
2018-04-16T18:28:18.507Z,95.45
2018-04-16T18:30:46.169Z,95.76
2018-04-16T18:33:13.828Z,95.93
2018-04-16T18:35:41.501Z,96.44
2018-04-16T18:38:09.214Z,96.71
2018-04-16T18:40:36.801Z,96.92
2018-04-16T18:43:04.437Z,97.05
2018-04-16T18:45:32.033Z,97.03
2018-04-16T18:47:59.627Z,97.03
2018-04-16T18:50:27.238Z,97.12
2018-04-16T18:52:54.884Z,97.22
2018-04-16T18:55:23.264Z,96.20
2018-04-16T18:57:51.700Z,96.09
2018-04-16T19:00:20.228Z,95.89
2018-04-16T19:02:47.872Z,95.64
2018-04-16T19:05:15.474Z,95.27
2018-04-16T19:07:43.623Z,95.58
2018-04-16T19:10:11.563Z,95.57
2018-04-16T19:12:39.287Z,95.54
2018-04-16T19:15:06.879Z,95.53
2018-04-16T19:17:39.962Z,96.05
2018-04-16T19:20:07.627Z,95.86
2018-04-16T19:22:35.216Z,95.47
2018-04-16T19:25:02.910Z,95.51
2018-04-16T19:27:36.095Z,96.10
2018-04-16T19:30:03.714Z,96.35
2018-04-16T19:32:37.029Z,96.36
2018-04-16T19:35:08.429Z,96.77
2018-04-16T19:37:36.025Z,96.93
2018-04-16T19:40:03.654Z,96.89
2018-04-16T19:42:36.930Z,96.73
2018-04-16T19:45:05.566Z,96.88
2018-04-16T19:47:33.213Z,96.52
2018-04-16T19:50:06.451Z,96.45
2018-04-16T19:52:34.965Z,96.39
2018-04-16T19:55:02.661Z,95.90
2018-04-16T19:57:36.731Z,96.16
2018-04-16T20:00:05.216Z,95.97
2018-04-16T20:02:39.186Z,96.02
2018-04-16T20:05:07.505Z,95.75
2018-04-16T20:07:35.097Z,96.11
2018-04-16T20:10:02.867Z,96.34
2018-04-16T20:12:30.451Z,96.13
2018-04-16T20:14:58.071Z,96.39
2018-04-16T20:17:25.760Z,96.07
2018-04-16T20:19:53.358Z,96.36
2018-04-16T20:22:20.995Z,96.06
2018-04-16T20:24:48.713Z,96.17
2018-04-16T20:27:17.205Z,96.44
2018-04-16T20:29:44.788Z,96.25
2018-04-16T20:32:12.398Z,97.08
2018-04-16T20:34:40.065Z,97.08
2018-04-16T20:37:07.677Z,96.88
2018-04-16T20:39:37.322Z,96.65
2018-04-16T20:42:05.961Z,96.21
2018-04-16T20:44:34.609Z,96.07
2018-04-16T20:47:02.205Z,95.93
2018-04-16T20:49:29.919Z,96.20
2018-04-16T20:51:57.649Z,96.51
2018-04-16T20:54:25.242Z,96.15
2018-04-16T20:56:52.875Z,95.90
2018-04-16T20:59:20.465Z,96.12
2018-04-16T21:01:48.102Z,96.04
2018-04-16T21:04:15.719Z,96.17
2018-04-16T21:06:43.373Z,95.92
2018-04-16T21:09:11.018Z,95.32
2018-04-16T21:11:38.624Z,94.77
2018-04-16T21:14:06.305Z,94.51
2018-04-16T21:16:33.897Z,94.45
2018-04-16T21:19:01.485Z,94.07
2018-04-16T21:21:29.074Z,93.59
2018-04-16T21:23:56.671Z,93.57
2018-04-16T21:26:24.266Z,94.07
2018-04-16T21:28:51.894Z,94.21
2018-04-16T21:31:19.509Z,94.36
2018-04-16T21:33:47.102Z,94.55
2018-04-16T21:36:14.694Z,94.36
2018-04-16T21:38:42.279Z,94.28
2018-04-16T21:41:09.895Z,94.22
2018-04-16T21:43:37.478Z,94.13
2018-04-16T21:46:05.063Z,93.87
2018-04-16T21:48:32.681Z,93.85
2018-04-16T21:51:00.265Z,93.97
2018-04-16T21:53:27.855Z,94.42
2018-04-16T21:55:56.346Z,94.84
2018-04-16T21:58:24.718Z,95.32
2018-04-16T22:00:53.137Z,95.21
2018-04-16T22:03:20.731Z,95.12
2018-04-16T22:05:48.362Z,95.42
2018-04-16T22:08:16.637Z,95.84
2018-04-16T22:10:44.225Z,96.13
2018-04-16T22:13:11.809Z,95.87
2018-04-16T22:15:39.390Z,94.71
2018-04-16T22:18:07.813Z,94.89
2018-04-16T22:20:35.403Z,95.09
2018-04-16T22:23:02.985Z,95.34
2018-04-16T22:25:30.573Z,95.32
2018-04-16T22:27:59.070Z,95.58
2018-04-16T22:30:26.661Z,95.55
2018-04-16T22:32:54.244Z,95.66
2018-04-16T22:35:22.750Z,95.71
2018-04-16T22:37:50.334Z,95.04
2018-04-16T22:40:17.929Z,94.18
2018-04-16T22:42:45.514Z,93.75
2018-04-16T22:45:13.109Z,94.41
2018-04-16T22:47:40.688Z,94.93
2018-04-16T22:50:08.385Z,95.54
2018-04-16T22:52:36.005Z,95.55
2018-04-16T22:55:03.649Z,95.71
2018-04-16T22:57:32.008Z,95.31
2018-04-16T22:59:59.597Z,95.46
2018-04-16T23:02:27.189Z,96.37
2018-04-16T23:04:54.823Z,95.69
2018-04-16T23:07:23.224Z,94.64
2018-04-16T23:09:51.628Z,94.97
2018-04-16T23:12:19.234Z,95.54
2018-04-16T23:14:47.748Z,95.99
2018-04-16T23:17:16.216Z,95.76
2018-04-16T23:19:43.803Z,94.95
2018-04-16T23:22:11.399Z,94.98
2018-04-16T23:24:39.008Z,95.54
2018-04-16T23:27:06.680Z,95.72
2018-04-16T23:29:34.335Z,96.20
2018-04-16T23:32:01.925Z,95.66
2018-04-16T23:34:29.521Z,96.06
2018-04-16T23:36:57.163Z,95.79
2018-04-16T23:39:24.757Z,95.30
2018-04-16T23:41:52.359Z,95.60
2018-04-16T23:44:19.955Z,95.83
2018-04-16T23:46:47.572Z,95.95
2018-04-16T23:49:15.161Z,96.23
2018-04-16T23:51:42.760Z,96.51
2018-04-16T23:54:10.351Z,96.91
2018-04-16T23:56:38.008Z,96.97
2018-04-16T23:59:05.600Z,97.07
